Aspen-Pitkin Co/Sardy Field
KASE : now visible

Airfield :











YOU CAN JOIN US ON...

 
LOGIN :

Register | Disclaimer

   EN    FR    IT 

 









Legend :    VFR   Marginal VFR   IFR   Intensive IFR   Very Intensive IFR
Visi :
Ceiling :
>= 8 km
>= 3000ft
5 to 8 km
1000 to 3000 ft
1500m to 5 km
500 to 1000 ft
800 to 1500m
200 to 500 ft
< 800m
< 200 ft
Symbols :   Thunderstorms  Fog  Heavy snow  Heavy precipitations  Wind > 20 kt






- Airport Elevation : 7820 ft


KASE - Aspen-Pitkin Co/Sardy Field

CURRENT METAR :
  • 180553Z 07003KT 10SM OVC050 M01/M08 A3002 RMK AO2 SLP135 T10111078 10028 21022 58008

EXPIRED METARs :
  • 180453Z 19004KT 10SM OVC055 M02/M08 A3003 RMK AO2 SLP147 T10171083

TAF KASE
Valid from the 18 at 06:00 until the 19 at 06:00 UTC


180529Z 1806/1906 21004KT P6SM VCSH SCT040 OVC060
FM180800 VRB04KT P6SM VCSH SCT020 OVC035
FM181600 00000KT P6SM BKN045
FM182000 35005KT P6SM SCT050 BKN200
FM190200 18005KT P6SM FEW070 BKN200
KZDV FIR / North America



MET'MAP, your aeronautical weather chart ! - Copyright ORBIFLY December 2007 - Disclaimer

ORBIFLY MET'MAP TEAM :

Programming & Development : Alexandra Zaïnal
Concept & original design : Baudouin d'Aumeries
Assistance for programming : Marc-Olivier Méhu
Technical & hardware support : Manuel Goepfert

Contact : metmap@orbifly.com




SOURCES & CREDITS :

   NOAA       Earth
Advisory